Time;durP1;ratioP1;P1;durP2;ratioP2;P2;SDS_P1;SDS_P2;PMS_P1;PMS_P2;Temp;Humidity;BMP_temperature;BMP_pressure;BME280_temperature;BME280_humidity;BME280_pressure;Samples;Min_cycle;Max_cycle;Signal;HPM_P1;HPM_P2
2023/10/14 00:02:28;;;;;;;0.00;0.00;;;21.20;43.60;;;;;;5071338;28;20474;-51
2023/10/14 00:04:58;;;;;;;0.10;0.10;;;21.20;43.50;;;;;;5061515;28;20627;-48
2023/10/14 00:07:29;;;;;;;0.00;0.00;;;21.10;43.50;;;;;;5057899;28;20218;-44
2023/10/14 00:10:03;;;;;;;0.03;0.03;;;21.20;43.50;;;;;;5062098;28;20195;-50
2023/10/14 00:12:35;;;;;;;0.10;0.10;;;21.20;43.50;;;;;;5051394;28;20232;-54
2023/10/14 00:15:08;;;;;;;0.10;0.10;;;21.20;44.10;;;;;;5067674;28;20237;-52
2023/10/14 00:17:42;;;;;;;0.00;0.00;;;21.10;43.50;;;;;;5063497;28;20601;-56
2023/10/14 00:20:14;;;;;;;0.00;0.00;;;21.20;43.40;;;;;;5061189;28;20208;-46
2023/10/14 00:22:45;;;;;;;0.08;0.08;;;21.20;43.40;;;;;;5065513;28;20547;-50
2023/10/14 00:25:19;;;;;;;0.00;0.00;;;21.20;43.40;;;;;;5068398;28;20206;-54
2023/10/14 00:27:50;;;;;;;0.10;0.10;;;21.20;43.40;;;;;;5068295;28;20260;-44
2023/10/14 00:30:26;;;;;;;0.00;0.00;;;21.20;43.40;;;;;;5068683;28;20316;-54
2023/10/14 00:32:57;;;;;;;0.00;0.00;;;21.20;43.40;;;;;;5056828;28;20202;-54
2023/10/14 00:35:28;;;;;;;0.10;0.10;;;21.20;43.40;;;;;;5068976;28;20264;-55
2023/10/14 00:38:08;;;;;;;0.00;0.00;;;21.20;43.40;;;;;;5071209;28;20219;-52
2023/10/14 00:40:41;;;;;;;0.10;0.10;;;21.20;43.40;;;;;;5071316;28;20199;-52
2023/10/14 00:43:12;;;;;;;0.05;0.05;;;21.20;43.40;;;;;;5057776;28;20198;-55
2023/10/14 00:45:45;;;;;;;0.10;0.10;;;21.20;43.20;;;;;;5070299;28;20211;-53
2023/10/14 00:48:19;;;;;;;0.03;0.03;;;21.20;43.10;;;;;;5071380;28;20734;-53
2023/10/14 00:50:50;;;;;;;0.10;0.10;;;21.30;43.00;;;;;;5055562;28;20187;-55
2023/10/14 06:48:18;;;;;;;0.00;0.00;;;20.00;45.00;;;;;;5110418;27;20524;-52
2023/10/14 06:50:49;;;;;;;0.00;0.00;;;21.70;42.80;;;;;;5109040;28;20198;-49
2023/10/14 06:53:20;;;;;;;0.00;0.00;;;22.00;42.20;;;;;;5108862;28;20201;-53
2023/10/14 06:55:50;;;;;;;0.10;0.10;;;22.00;41.90;;;;;;5108624;28;20212;-52
2023/10/14 06:58:21;;;;;;;0.10;0.10;;;22.10;41.70;;;;;;5108676;28;20688;-55
2023/10/14 07:04:25;;;;;;;0.00;0.00;;;22.00;41.00;;;;;;5117264;27;20574;-52
2023/10/14 07:06:58;;;;;;;0.10;0.10;;;21.90;41.50;;;;;;5109473;28;20225;-53
2023/10/14 07:09:29;;;;;;;0.10;0.10;;;21.80;41.70;;;;;;5109051;28;20195;-53
2023/10/14 07:12:00;;;;;;;0.10;0.10;;;21.80;41.90;;;;;;5097886;28;20226;-48
2023/10/14 07:14:31;;;;;;;0.10;0.10;;;21.80;41.90;;;;;;5105451;28;20189;-54
2023/10/14 07:17:02;;;;;;;0.10;0.10;;;21.70;41.80;;;;;;5109495;28;20203;-49
2023/10/14 07:19:37;;;;;;;0.10;0.10;;;21.80;41.80;;;;;;5109066;28;20194;-48
2023/10/14 07:22:10;;;;;;;0.10;0.10;;;21.80;41.70;;;;;;5108857;28;20193;-53
2023/10/14 07:24:39;;;;;;;0.00;0.00;;;21.80;41.70;;;;;;5108926;28;20197;-47
2023/10/14 07:27:10;;;;;;;0.10;0.10;;;21.80;41.70;;;;;;5108701;28;20213;-45
2023/10/14 07:29:45;;;;;;;0.10;0.10;;;21.80;41.70;;;;;;5108881;28;20194;-46
2023/10/14 07:32:19;;;;;;;0.05;0.05;;;21.80;41.70;;;;;;5109148;28;20193;-47
2023/10/14 07:34:53;;;;;;;0.10;0.10;;;21.80;41.60;;;;;;5108588;28;20285;-52
2023/10/14 07:37:24;;;;;;;0.00;0.00;;;21.80;41.60;;;;;;5109275;28;20214;-45
2023/10/14 07:39:55;;;;;;;0.00;0.00;;;21.70;41.50;;;;;;5108967;28;20198;-47
2023/10/14 07:42:25;;;;;;;0.10;0.10;;;21.70;41.50;;;;;;5108896;28;20226;-45
2023/10/14 07:44:56;;;;;;;0.10;0.10;;;21.70;41.50;;;;;;5108794;28;20258;-47
2023/10/14 07:47:29;;;;;;;0.05;0.05;;;21.70;41.50;;;;;;5108387;28;20579;-49
2023/10/14 07:50:02;;;;;;;0.10;0.10;;;21.70;41.40;;;;;;5108081;28;20237;-49
2023/10/14 07:52:40;;;;;;;0.10;0.10;;;21.70;41.30;;;;;;5108270;28;20362;-46
2023/10/14 07:55:15;;;;;;;0.10;0.10;;;21.70;41.30;;;;;;5108151;28;20208;-51
2023/10/14 07:57:46;;;;;;;0.10;0.10;;;21.70;41.20;;;;;;5108274;28;20285;-48
2023/10/14 08:00:17;;;;;;;0.05;0.05;;;21.70;41.20;;;;;;5108336;28;20206;-49
2023/10/14 08:02:51;;;;;;;0.10;0.10;;;21.60;41.10;;;;;;5108225;28;20692;-50
2023/10/14 08:05:25;;;;;;;0.10;0.10;;;21.60;41.20;;;;;;5093753;28;20205;-52
2023/10/14 08:07:55;;;;;;;0.10;0.10;;;21.60;41.10;;;;;;5087994;28;20253;-51
2023/10/14 08:10:26;;;;;;;0.10;0.10;;;21.60;41.10;;;;;;5087939;28;20202;-53
2023/10/14 08:12:57;;;;;;;0.10;0.10;;;21.60;41.10;;;;;;5088078;28;20198;-53
2023/10/14 08:15:29;;;;;;;0.00;0.00;;;21.60;41.20;;;;;;5075808;28;20559;-51
2023/10/14 08:18:01;;;;;;;0.17;0.17;;;21.50;41.10;;;;;;5074394;28;20236;-53
2023/10/14 08:20:33;;;;;;;0.10;0.10;;;21.50;41.10;;;;;;5074502;28;20219;-50
2023/10/14 08:23:09;;;;;;;0.00;0.00;;;21.50;41.10;;;;;;5086139;28;20221;-49
2023/10/14 08:25:41;;;;;;;0.10;0.10;;;21.50;41.10;;;;;;5093942;28;20197;-50
2023/10/14 08:28:12;;;;;;;0.10;0.10;;;21.50;41.10;;;;;;5093420;28;20214;-53
2023/10/14 08:30:47;;;;;;;0.10;0.10;;;21.50;41.10;;;;;;5083836;28;20195;-51
2023/10/14 08:33:21;;;;;;;0.10;0.10;;;21.50;41.20;;;;;;5075874;28;20190;-52
2023/10/14 08:35:55;;;;;;;0.10;0.10;;;21.50;41.10;;;;;;5093819;28;20212;-53
2023/10/14 08:38:27;;;;;;;0.10;0.10;;;21.50;41.10;;;;;;5093454;28;20738;-53
2023/10/14 08:40:59;;;;;;;0.10;0.10;;;21.50;41.00;;;;;;5075427;28;20371;-53
2023/10/14 08:43:31;;;;;;;0.10;0.10;;;21.50;41.00;;;;;;5076645;28;20210;-54
2023/10/14 08:46:01;;;;;;;0.10;0.10;;;21.40;41.00;;;;;;5092533;28;20687;-53
2023/10/14 08:48:33;;;;;;;0.10;0.10;;;21.40;40.90;;;;;;5078005;28;20211;-52
2023/10/14 08:51:06;;;;;;;0.10;0.10;;;21.40;40.90;;;;;;5091832;28;20602;-51
2023/10/14 08:53:40;;;;;;;0.10;0.10;;;21.40;40.90;;;;;;5084170;28;20194;-52
2023/10/14 08:56:11;;;;;;;0.10;0.10;;;21.40;40.90;;;;;;5072590;28;20199;-49
2023/10/14 08:58:43;;;;;;;0.10;0.10;;;21.40;41.00;;;;;;5091399;28;20214;-50
2023/10/14 09:01:16;;;;;;;0.10;0.10;;;21.40;41.00;;;;;;5092550;28;20251;-53
2023/10/14 09:03:49;;;;;;;0.10;0.10;;;21.30;41.00;;;;;;5093071;28;20218;-48
2023/10/14 09:06:23;;;;;;;0.10;0.10;;;21.30;41.00;;;;;;5091630;28;20213;-53
2023/10/14 09:08:54;;;;;;;0.00;0.00;;;21.30;41.00;;;;;;5092964;28;20211;-48
2023/10/14 09:11:33;;;;;;;0.10;0.10;;;21.30;41.00;;;;;;5092268;28;20190;-53
2023/10/14 09:14:10;;;;;;;0.10;0.10;;;21.30;41.10;;;;;;5112355;28;20200;-53
2023/10/14 09:16:42;;;;;;;0.10;0.10;;;21.30;41.10;;;;;;5108241;28;20209;-52
2023/10/14 09:19:12;;;;;;;0.10;0.10;;;21.30;41.10;;;;;;5075175;28;20226;-49
2023/10/14 09:21:50;;;;;;;0.03;0.03;;;21.20;41.00;;;;;;5089714;28;20237;-49
2023/10/14 09:24:28;;;;;;;0.10;0.10;;;21.20;41.70;;;;;;5071983;28;20226;-51
2023/10/14 09:27:00;;;;;;;0.00;0.00;;;21.20;41.00;;;;;;5072906;28;20579;-53
2023/10/14 09:29:31;;;;;;;0.10;0.10;;;21.20;41.10;;;;;;5092129;28;20194;-53
2023/10/14 09:32:01;;;;;;;0.10;0.10;;;21.20;41.00;;;;;;5091929;28;20221;-53
2023/10/14 09:34:32;;;;;;;0.05;0.05;;;21.10;41.00;;;;;;5092203;28;20255;-54
2023/10/14 09:37:10;;;;;;;0.03;0.03;;;21.10;41.00;;;;;;5092652;28;20217;-53
2023/10/14 09:39:44;;;;;;;0.10;0.10;;;21.10;41.00;;;;;;5092351;28;20194;-54
2023/10/14 09:42:16;;;;;;;0.10;0.10;;;21.10;41.00;;;;;;5090397;28;20197;-44
2023/10/14 09:44:47;;;;;;;0.10;0.10;;;21.10;41.10;;;;;;5111983;28;20246;-49
2023/10/14 09:47:22;;;;;;;0.10;0.10;;;21.10;41.20;;;;;;5112294;28;20613;-49
2023/10/14 09:49:53;;;;;;;0.10;0.10;;;21.10;41.10;;;;;;5112087;28;20356;-53
2023/10/14 09:52:26;;;;;;;0.10;0.10;;;21.00;41.20;;;;;;5111704;28;20186;-52
2023/10/14 09:54:57;;;;;;;0.10;0.10;;;21.00;41.20;;;;;;5111847;27;20246;-54
2023/10/14 09:57:29;;;;;;;0.10;0.10;;;21.00;41.20;;;;;;5110957;28;20209;-50
2023/10/14 10:00:00;;;;;;;0.10;0.10;;;21.00;41.20;;;;;;5111916;28;20197;-49
2023/10/14 10:02:32;;;;;;;0.10;0.10;;;21.00;41.20;;;;;;5111571;27;20190;-51
2023/10/14 10:05:07;;;;;;;0.10;0.10;;;21.00;41.20;;;;;;5088034;28;20222;-52
2023/10/14 10:07:53;;;;;;;0.10;0.10;;;20.90;41.20;;;;;;5076470;28;20206;-51
2023/10/14 10:10:28;;;;;;;0.03;0.03;;;20.90;41.20;;;;;;5091288;28;20201;-50
2023/10/14 10:12:59;;;;;;;0.10;0.10;;;20.90;41.20;;;;;;5091195;28;20247;-53
2023/10/14 10:15:35;;;;;;;0.10;0.10;;;20.90;41.20;;;;;;5090076;28;20198;-51
2023/10/14 10:18:12;;;;;;;0.10;0.10;;;20.90;41.20;;;;;;5091511;28;20216;-51
2023/10/14 10:20:55;;;;;;;0.20;0.20;;;20.90;41.20;;;;;;5083369;28;20194;-49
2023/10/14 10:23:29;;;;;;;0.10;0.10;;;20.90;41.20;;;;;;5072648;28;20222;-54
2023/10/14 10:26:02;;;;;;;0.00;0.00;;;20.80;41.20;;;;;;5080359;28;20265;-52
2023/10/14 10:28:46;;;;;;;0.10;0.10;;;20.80;41.20;;;;;;5080468;28;20206;-49
2023/10/14 10:31:21;;;;;;;0.10;0.10;;;20.80;41.20;;;;;;5081608;28;20186;-52
2023/10/14 10:34:00;;;;;;;0.00;0.00;;;20.80;41.30;;;;;;5081149;28;20186;-48
2023/10/14 10:36:32;;;;;;;0.10;0.10;;;20.80;41.30;;;;;;5080860;28;20194;-52
2023/10/14 10:39:15;;;;;;;0.10;0.10;;;20.70;41.30;;;;;;5080135;28;20202;-51
2023/10/14 10:41:47;;;;;;;0.10;0.10;;;20.70;41.30;;;;;;5080501;28;20187;-53
2023/10/14 10:44:18;;;;;;;0.10;0.10;;;20.70;41.40;;;;;;5079544;28;20218;-54
2023/10/14 10:46:50;;;;;;;0.10;0.10;;;20.70;41.40;;;;;;5080931;28;20198;-53
2023/10/14 10:49:56;;;;;;;0.10;0.10;;;20.70;41.30;;;;;;5079092;28;20553;-48
2023/10/14 10:52:28;;;;;;;0.10;0.10;;;20.70;41.30;;;;;;5078831;28;20199;-50
2023/10/14 10:55:00;;;;;;;0.10;0.10;;;20.70;41.30;;;;;;5079157;28;20590;-52
2023/10/14 10:57:32;;;;;;;0.10;0.10;;;20.60;41.30;;;;;;5080484;28;20242;-52
2023/10/14 11:00:04;;;;;;;0.10;0.10;;;20.60;41.30;;;;;;5080131;28;20646;-52
2023/10/14 11:02:39;;;;;;;0.10;0.10;;;20.60;41.30;;;;;;5079970;28;20202;-48
2023/10/14 11:05:11;;;;;;;0.05;0.05;;;20.60;41.40;;;;;;5082024;28;20223;-53
2023/10/14 11:07:43;;;;;;;0.10;0.10;;;20.60;41.40;;;;;;5081247;28;20264;-53
2023/10/14 11:10:17;;;;;;;0.10;0.10;;;20.60;41.40;;;;;;5080707;28;20556;-52
2023/10/14 11:12:48;;;;;;;0.10;0.10;;;20.50;41.40;;;;;;5084100;28;20545;-54
2023/10/14 11:15:25;;;;;;;0.10;0.10;;;20.50;41.40;;;;;;5082113;28;20707;-50
2023/10/14 11:17:57;;;;;;;0.10;0.10;;;20.50;41.50;;;;;;5081807;28;20237;-51
2023/10/14 11:20:29;;;;;;;0.00;0.00;;;20.50;41.50;;;;;;5080396;28;20193;-45
2023/10/14 11:23:03;;;;;;;0.10;0.10;;;20.40;41.50;;;;;;5080274;28;20267;-53
2023/10/14 11:25:41;;;;;;;0.10;0.10;;;20.40;41.50;;;;;;5080551;28;20218;-51
2023/10/14 11:28:14;;;;;;;0.10;0.10;;;20.40;41.50;;;;;;5086192;28;20216;-52
2023/10/14 11:30:47;;;;;;;0.00;0.00;;;20.40;41.50;;;;;;5087792;28;20649;-45
2023/10/14 11:33:22;;;;;;;0.10;0.10;;;20.40;41.50;;;;;;5091131;28;20451;-52
2023/10/14 11:35:52;;;;;;;0.10;0.10;;;20.40;41.50;;;;;;5090941;28;20860;-52
2023/10/14 11:38:27;;;;;;;0.10;0.10;;;20.30;42.10;;;;;;5091313;28;20285;-51
2023/10/14 11:41:02;;;;;;;0.10;0.10;;;20.30;42.10;;;;;;5091328;28;20193;-50
2023/10/14 11:43:32;;;;;;;0.10;0.10;;;20.30;41.50;;;;;;5091106;28;20691;-48
2023/10/14 11:46:03;;;;;;;0.10;0.10;;;20.30;41.50;;;;;;5090622;28;20600;-51
2023/10/14 11:48:36;;;;;;;0.10;0.10;;;20.30;41.50;;;;;;5091299;28;20207;-49
2023/10/14 11:51:11;;;;;;;0.10;0.10;;;20.30;41.50;;;;;;5094589;28;20284;-46
2023/10/14 11:53:46;;;;;;;0.20;0.20;;;20.20;41.60;;;;;;5095192;28;20249;-47
2023/10/14 11:56:18;;;;;;;0.10;0.10;;;20.20;41.60;;;;;;5095500;28;20263;-53
2023/10/14 11:58:51;;;;;;;0.10;0.10;;;20.20;41.70;;;;;;5094665;28;20214;-51
2023/10/14 12:01:23;;;;;;;0.10;0.10;;;20.20;41.60;;;;;;5094523;28;20654;-48
2023/10/14 12:03:54;;;;;;;0.00;0.00;;;20.20;41.70;;;;;;5092010;28;20214;-44
2023/10/14 12:06:25;;;;;;;0.10;0.10;;;20.20;41.70;;;;;;5073977;28;20206;-51
2023/10/14 12:08:55;;;;;;;0.10;0.10;;;20.10;41.70;;;;;;5073838;28;20685;-50
2023/10/14 12:11:28;;;;;;;0.10;0.10;;;20.10;41.70;;;;;;5073615;28;20195;-47
2023/10/14 12:13:59;;;;;;;0.10;0.10;;;20.10;41.70;;;;;;5074650;28;20650;-53
2023/10/14 12:16:29;;;;;;;0.08;0.08;;;20.10;41.70;;;;;;5073994;28;20194;-48
2023/10/14 12:19:00;;;;;;;0.00;0.00;;;20.10;41.70;;;;;;5073762;28;20223;-49
2023/10/14 12:21:30;;;;;;;0.10;0.10;;;20.10;41.70;;;;;;5073694;28;20252;-50
2023/10/14 12:24:03;;;;;;;0.08;0.08;;;20.00;41.70;;;;;;5073845;28;20346;-53
2023/10/14 12:26:43;;;;;;;0.10;0.10;;;20.00;41.70;;;;;;5073746;28;20199;-52
2023/10/14 12:29:14;;;;;;;0.10;0.10;;;20.00;41.70;;;;;;5073539;28;20285;-51
2023/10/14 12:31:45;;;;;;;0.10;0.10;;;20.00;41.70;;;;;;5073304;28;20530;-52
2023/10/14 12:34:16;;;;;;;0.10;0.10;;;19.90;41.70;;;;;;5073455;28;20202;-53
2023/10/14 12:36:46;;;;;;;0.20;0.20;;;20.00;41.80;;;;;;5073475;28;20195;-53
2023/10/14 12:39:26;;;;;;;0.10;0.10;;;19.90;41.80;;;;;;5074481;28;20191;-45
2023/10/14 12:42:03;;;;;;;0.10;0.10;;;19.90;41.80;;;;;;5074274;28;20202;-52
2023/10/14 12:44:35;;;;;;;0.10;0.10;;;19.90;41.80;;;;;;5074157;28;20222;-53
2023/10/14 12:47:10;;;;;;;0.10;0.10;;;19.90;41.80;;;;;;5074012;28;20201;-53
2023/10/14 12:49:41;;;;;;;0.10;0.10;;;19.90;41.90;;;;;;5073802;28;20667;-50
2023/10/14 12:52:15;;;;;;;0.00;0.00;;;19.90;42.00;;;;;;5073918;28;20198;-47
2023/10/14 12:54:45;;;;;;;0.00;0.00;;;19.80;41.90;;;;;;5073575;28;20218;-51
2023/10/14 12:57:18;;;;;;;0.10;0.10;;;19.80;41.80;;;;;;5073226;28;20306;-51
2023/10/14 12:59:48;;;;;;;0.13;0.13;;;19.80;41.90;;;;;;5075325;28;20211;-50
2023/10/14 13:02:20;;;;;;;0.00;0.00;;;19.80;41.80;;;;;;5073835;28;20207;-53
2023/10/14 13:04:52;;;;;;;0.10;0.10;;;19.80;41.90;;;;;;5073177;28;20288;-53
2023/10/14 13:07:22;;;;;;;0.10;0.10;;;19.80;41.90;;;;;;5077687;28;20221;-53
2023/10/14 13:09:53;;;;;;;0.10;0.10;;;19.70;41.90;;;;;;5093765;28;20241;-53
2023/10/14 13:12:28;;;;;;;0.10;0.10;;;19.70;41.90;;;;;;5093376;28;20190;-50
2023/10/14 13:14:59;;;;;;;0.10;0.10;;;19.70;41.90;;;;;;5092897;28;20190;-50
2023/10/14 13:17:32;;;;;;;0.10;0.10;;;19.70;41.90;;;;;;5093300;28;20213;-50
2023/10/14 13:20:02;;;;;;;0.10;0.10;;;19.70;41.90;;;;;;5093397;28;20243;-49
2023/10/14 13:22:33;;;;;;;0.10;0.10;;;19.70;42.60;;;;;;5093639;28;20240;-52
2023/10/14 13:25:04;;;;;;;0.10;0.10;;;19.70;42.00;;;;;;5093372;28;20296;-53
2023/10/14 13:27:36;;;;;;;0.00;0.00;;;19.60;41.90;;;;;;5093699;28;20569;-50
2023/10/14 13:30:10;;;;;;;0.00;0.00;;;19.60;42.00;;;;;;5093394;28;20209;-51
2023/10/14 13:32:40;;;;;;;0.10;0.10;;;19.60;42.00;;;;;;5092919;28;20186;-50
2023/10/14 13:35:15;;;;;;;0.00;0.00;;;19.60;42.00;;;;;;5087392;28;20658;-53
2023/10/14 13:37:46;;;;;;;0.05;0.05;;;19.60;42.00;;;;;;5093268;28;20209;-50
2023/10/14 13:40:21;;;;;;;0.10;0.10;;;19.60;42.00;;;;;;5092952;28;20220;-53
2023/10/14 13:42:54;;;;;;;0.10;0.10;;;19.50;42.00;;;;;;5092590;28;20196;-50
2023/10/14 13:45:25;;;;;;;0.10;0.10;;;19.50;42.00;;;;;;5092249;28;20275;-49
2023/10/14 13:47:56;;;;;;;0.10;0.10;;;19.50;42.00;;;;;;5092581;28;20214;-55
2023/10/14 13:50:26;;;;;;;0.10;0.10;;;19.50;42.00;;;;;;5092523;28;20221;-53
2023/10/14 13:52:57;;;;;;;0.10;0.10;;;19.50;42.10;;;;;;5092748;28;20216;-49
2023/10/14 13:55:27;;;;;;;0.10;0.10;;;19.50;42.00;;;;;;5092735;28;20198;-54
2023/10/14 13:58:00;;;;;;;0.03;0.03;;;19.50;42.00;;;;;;5092849;28;20274;-49
2023/10/14 14:00:37;;;;;;;0.10;0.10;;;19.50;42.10;;;;;;5092392;28;20190;-51
2023/10/14 14:03:10;;;;;;;0.10;0.10;;;19.40;42.00;;;;;;5092429;28;20206;-50
2023/10/14 14:05:42;;;;;;;0.10;0.10;;;19.40;42.00;;;;;;5092541;28;20222;-51
2023/10/14 14:08:12;;;;;;;0.10;0.10;;;19.40;42.10;;;;;;5092553;28;20243;-48
2023/10/14 14:10:44;;;;;;;0.13;0.13;;;19.40;42.10;;;;;;5092342;28;20198;-54
2023/10/14 14:13:19;;;;;;;0.10;0.10;;;19.40;42.20;;;;;;5091436;28;20194;-48
2023/10/14 14:15:51;;;;;;;0.10;0.10;;;19.40;42.20;;;;;;5091889;28;20284;-52
2023/10/14 14:18:22;;;;;;;0.10;0.10;;;19.30;42.10;;;;;;5092163;28;20222;-50
2023/10/14 14:20:52;;;;;;;0.10;0.10;;;19.30;42.10;;;;;;5091901;28;20194;-53
2023/10/14 14:23:23;;;;;;;0.15;0.15;;;19.30;42.10;;;;;;5091996;28;20602;-49
2023/10/14 14:25:53;;;;;;;0.00;0.00;;;19.30;42.20;;;;;;5092361;28;20218;-53
2023/10/14 14:28:26;;;;;;;0.00;0.00;;;19.30;42.10;;;;;;5092074;28;20271;-53
2023/10/14 14:30:56;;;;;;;0.10;0.10;;;19.30;42.20;;;;;;5092246;28;20251;-52
2023/10/14 14:33:29;;;;;;;0.10;0.10;;;19.30;42.10;;;;;;5091945;28;20194;-53
2023/10/14 14:35:59;;;;;;;0.10;0.10;;;19.30;42.20;;;;;;5071453;28;20222;-50
2023/10/14 14:38:34;;;;;;;0.10;0.10;;;19.30;42.10;;;;;;5072052;28;20267;-50
2023/10/14 14:41:07;;;;;;;0.10;0.10;;;19.30;42.10;;;;;;5072030;28;20209;-54
2023/10/14 14:43:41;;;;;;;0.10;0.10;;;19.20;42.00;;;;;;5071887;28;20529;-49
2023/10/14 14:46:12;;;;;;;0.10;0.10;;;19.20;42.10;;;;;;5071677;28;20607;-52
2023/10/14 14:48:43;;;;;;;0.10;0.10;;;19.20;42.10;;;;;;5071818;28;20298;-52
2023/10/14 14:51:14;;;;;;;0.10;0.10;;;19.20;42.10;;;;;;5071700;28;20191;-50
2023/10/14 14:53:46;;;;;;;0.00;0.00;;;19.20;42.10;;;;;;5071250;28;20553;-52
2023/10/14 14:56:17;;;;;;;0.10;0.10;;;19.20;42.10;;;;;;5070836;28;20246;-52
2023/10/14 14:58:50;;;;;;;0.20;0.20;;;19.20;42.20;;;;;;5070911;28;20207;-48
2023/10/14 15:01:23;;;;;;;0.10;0.10;;;19.20;42.80;;;;;;5073513;28;20202;-49
2023/10/14 15:03:55;;;;;;;0.10;0.10;;;19.10;42.10;;;;;;5070815;28;20600;-52
2023/10/14 15:06:27;;;;;;;0.10;0.10;;;19.10;42.10;;;;;;5082372;28;20240;-50
2023/10/14 15:08:58;;;;;;;0.10;0.10;;;19.10;42.10;;;;;;5091071;28;20210;-47
2023/10/14 15:11:29;;;;;;;0.10;0.10;;;19.10;42.10;;;;;;5091684;28;20537;-48
2023/10/14 15:14:03;;;;;;;0.10;0.10;;;19.10;42.10;;;;;;5091882;28;20320;-49
2023/10/14 15:16:37;;;;;;;0.10;0.10;;;19.10;42.10;;;;;;5072024;28;20614;-51
2023/10/14 15:19:08;;;;;;;0.10;0.10;;;19.10;42.10;;;;;;5071319;28;20214;-51
2023/10/14 15:21:39;;;;;;;0.10;0.10;;;19.10;42.10;;;;;;5071431;28;20579;-47
2023/10/14 15:24:11;;;;;;;0.10;0.10;;;19.10;42.20;;;;;;5072382;28;20276;-50
2023/10/14 15:26:44;;;;;;;0.10;0.10;;;19.10;42.20;;;;;;5075356;28;20244;-53
2023/10/14 15:29:17;;;;;;;0.10;0.10;;;19.00;42.10;;;;;;5075290;28;20426;-52
2023/10/14 15:31:48;;;;;;;0.10;0.10;;;19.00;42.20;;;;;;5075251;28;20198;-45
2023/10/14 15:34:19;;;;;;;0.10;0.10;;;19.00;42.20;;;;;;5087649;28;20272;-54
2023/10/14 15:36:50;;;;;;;0.10;0.10;;;19.00;42.20;;;;;;5095383;28;20201;-52
2023/10/14 15:39:30;;;;;;;0.10;0.10;;;19.00;42.20;;;;;;5095798;28;20237;-53
2023/10/14 15:42:02;;;;;;;0.10;0.10;;;19.00;42.20;;;;;;5095143;28;20291;-48
2023/10/14 15:44:35;;;;;;;0.10;0.10;;;19.00;42.20;;;;;;5094913;28;20547;-51
2023/10/14 15:47:07;;;;;;;0.10;0.10;;;19.00;42.20;;;;;;5095112;28;20190;-46
2023/10/14 15:49:42;;;;;;;0.10;0.10;;;19.00;42.20;;;;;;5094631;28;20190;-52
2023/10/14 15:52:13;;;;;;;0.10;0.10;;;19.00;42.30;;;;;;5094566;28;20590;-45
2023/10/14 15:54:47;;;;;;;0.10;0.10;;;19.00;42.20;;;;;;5095250;28;20186;-48
2023/10/14 15:57:18;;;;;;;0.10;0.10;;;18.90;42.20;;;;;;5095145;28;20548;-48
2023/10/14 15:59:51;;;;;;;0.10;0.10;;;19.00;42.30;;;;;;5094878;28;20265;-50
2023/10/14 16:02:22;;;;;;;0.10;0.10;;;18.90;42.20;;;;;;5094600;28;20206;-51
2023/10/14 16:04:54;;;;;;;0.10;0.10;;;18.90;42.20;;;;;;5083573;28;20322;-52
2023/10/14 16:07:25;;;;;;;0.10;0.10;;;18.90;42.30;;;;;;5073933;28;20223;-44
2023/10/14 16:09:56;;;;;;;0.10;0.10;;;18.90;42.30;;;;;;5074617;28;20581;-52
2023/10/14 16:12:28;;;;;;;0.10;0.10;;;18.90;42.20;;;;;;5074768;28;20528;-48
2023/10/14 16:15:01;;;;;;;0.10;0.10;;;18.90;42.30;;;;;;5074743;28;20612;-49
2023/10/14 16:17:32;;;;;;;0.15;0.15;;;18.90;42.30;;;;;;5074390;28;20576;-49
2023/10/14 16:20:03;;;;;;;0.10;0.10;;;18.90;42.30;;;;;;5073639;28;20535;-47
2023/10/14 16:22:34;;;;;;;0.00;0.00;;;18.90;42.30;;;;;;5074103;28;20195;-45
2023/10/14 16:25:05;;;;;;;0.10;0.10;;;18.90;42.30;;;;;;5073998;28;20545;-48
2023/10/14 16:27:38;;;;;;;0.10;0.10;;;18.80;42.30;;;;;;5073840;28;20240;-49
2023/10/14 16:30:16;;;;;;;0.10;0.10;;;18.80;42.30;;;;;;5074349;28;20190;-51
2023/10/14 16:32:48;;;;;;;0.00;0.00;;;18.80;42.40;;;;;;5074190;28;20291;-47
2023/10/14 16:35:20;;;;;;;0.10;0.10;;;18.80;42.30;;;;;;5073619;28;20264;-43
2023/10/14 16:37:52;;;;;;;0.10;0.10;;;18.80;42.30;;;;;;5074859;28;20214;-45
2023/10/14 16:40:23;;;;;;;0.17;0.17;;;18.80;42.40;;;;;;5074164;28;20212;-48
2023/10/14 16:42:55;;;;;;;0.08;0.08;;;18.80;42.40;;;;;;5073535;28;20195;-45
2023/10/14 16:45:28;;;;;;;0.10;0.10;;;18.80;42.40;;;;;;5073770;28;20247;-50
2023/10/14 16:48:00;;;;;;;0.10;0.10;;;18.80;42.40;;;;;;5073852;28;20289;-49
2023/10/14 16:50:32;;;;;;;0.00;0.00;;;18.80;42.40;;;;;;5073853;28;20587;-47
2023/10/14 16:53:03;;;;;;;0.10;0.10;;;18.70;42.40;;;;;;5073631;28;20248;-52
2023/10/14 16:55:35;;;;;;;0.00;0.00;;;18.70;42.40;;;;;;5073204;28;20543;-51
2023/10/14 16:58:06;;;;;;;0.10;0.10;;;18.70;42.40;;;;;;5073341;28;20298;-43
2023/10/14 17:00:39;;;;;;;0.10;0.10;;;18.70;42.40;;;;;;5073826;28;20216;-53
2023/10/14 17:03:11;;;;;;;0.10;0.10;;;18.70;42.40;;;;;;5073817;28;20272;-42
2023/10/14 17:05:42;;;;;;;0.10;0.10;;;18.70;42.50;;;;;;5089494;28;20265;-49
2023/10/14 17:08:15;;;;;;;0.10;0.10;;;18.70;42.50;;;;;;5093073;28;20307;-54
2023/10/14 17:10:46;;;;;;;0.10;0.10;;;18.70;42.50;;;;;;5093370;28;20268;-52
2023/10/14 17:13:17;;;;;;;0.10;0.10;;;18.70;42.50;;;;;;5093534;28;20212;-46
2023/10/14 17:15:52;;;;;;;0.10;0.10;;;18.70;42.50;;;;;;5093169;28;20255;-53
2023/10/14 17:18:23;;;;;;;0.10;0.10;;;18.70;42.50;;;;;;5093462;28;20626;-50
2023/10/14 17:20:54;;;;;;;0.10;0.10;;;18.70;42.50;;;;;;5093582;28;20212;-54
2023/10/14 17:23:25;;;;;;;0.17;0.17;;;18.70;42.50;;;;;;5093194;28;20536;-53
2023/10/14 17:25:59;;;;;;;0.10;0.10;;;18.70;42.50;;;;;;5093263;28;20292;-49
2023/10/14 17:28:30;;;;;;;0.00;0.00;;;18.70;42.60;;;;;;5093415;28;20206;-53
2023/10/14 17:31:05;;;;;;;0.13;0.13;;;18.70;42.50;;;;;;5093359;28;20557;-47
2023/10/14 17:33:36;;;;;;;0.10;0.10;;;18.70;42.60;;;;;;5089935;28;20536;-49
2023/10/14 17:36:13;;;;;;;0.10;0.10;;;18.60;42.50;;;;;;5072676;28;20539;-54
2023/10/14 17:38:45;;;;;;;0.10;0.10;;;18.70;42.60;;;;;;5073120;28;20558;-50
2023/10/14 17:41:19;;;;;;;0.10;0.10;;;18.60;42.60;;;;;;5072276;28;20191;-52
2023/10/14 17:43:50;;;;;;;0.00;0.00;;;18.60;42.60;;;;;;5072705;28;20516;-49
2023/10/14 17:46:25;;;;;;;0.10;0.10;;;18.60;42.60;;;;;;5072090;28;20571;-51
2023/10/14 17:48:56;;;;;;;0.10;0.10;;;18.60;42.60;;;;;;5090950;28;20293;-50
2023/10/14 17:51:27;;;;;;;0.10;0.10;;;18.60;42.60;;;;;;5092423;28;20191;-48
2023/10/14 17:53:58;;;;;;;0.10;0.10;;;18.60;42.70;;;;;;5092633;28;20292;-51
2023/10/14 17:56:29;;;;;;;0.17;0.17;;;18.60;42.70;;;;;;5092805;28;20216;-51
2023/10/14 17:59:01;;;;;;;0.08;0.08;;;18.60;42.70;;;;;;5092711;28;20605;-52
2023/10/14 18:01:34;;;;;;;0.10;0.10;;;18.60;42.70;;;;;;5092817;28;20601;-49
2023/10/14 18:04:06;;;;;;;0.08;0.08;;;18.60;42.70;;;;;;5088530;28;20206;-49
2023/10/14 18:06:37;;;;;;;0.10;0.10;;;18.60;42.70;;;;;;5071558;28;20634;-53
2023/10/14 18:09:13;;;;;;;0.10;0.10;;;18.60;42.70;;;;;;5071980;28;20281;-48
2023/10/14 18:11:49;;;;;;;0.10;0.10;;;18.60;42.70;;;;;;5072559;28;20545;-54
2023/10/14 18:14:20;;;;;;;0.10;0.10;;;18.60;42.70;;;;;;5072346;28;20541;-49
2023/10/14 18:16:53;;;;;;;0.10;0.10;;;18.60;42.70;;;;;;5072099;28;20307;-51
2023/10/14 18:19:24;;;;;;;0.10;0.10;;;18.50;42.70;;;;;;5072378;28;20528;-52
2023/10/14 18:21:56;;;;;;;0.10;0.10;;;18.50;42.70;;;;;;5072247;28;20186;-50
2023/10/14 18:24:27;;;;;;;0.10;0.10;;;18.60;42.80;;;;;;5071865;28;20535;-50
2023/10/14 18:27:00;;;;;;;0.10;0.10;;;18.50;42.70;;;;;;5071146;28;20222;-48
2023/10/14 18:29:32;;;;;;;0.10;0.10;;;18.60;42.80;;;;;;5071914;28;20260;-47
2023/10/14 18:32:05;;;;;;;0.10;0.10;;;18.50;42.80;;;;;;5071941;28;20277;-46
2023/10/14 18:34:36;;;;;;;0.00;0.00;;;18.60;42.80;;;;;;5071905;28;20195;-51
2023/10/14 18:37:07;;;;;;;0.10;0.10;;;18.50;42.80;;;;;;5071611;28;20555;-50
2023/10/14 18:39:38;;;;;;;0.03;0.03;;;18.60;42.90;;;;;;5072244;28;20195;-50
2023/10/14 18:42:09;;;;;;;0.10;0.10;;;18.60;42.90;;;;;;5077544;28;20541;-47
2023/10/14 18:44:39;;;;;;;0.10;0.10;;;18.50;42.80;;;;;;5080870;28;20256;-46
2023/10/14 18:47:13;;;;;;;0.10;0.10;;;18.60;42.90;;;;;;5080431;28;20292;-52
2023/10/14 18:49:45;;;;;;;0.10;0.10;;;18.50;42.80;;;;;;5081684;28;20205;-50
2023/10/14 18:52:16;;;;;;;0.10;0.10;;;18.50;42.80;;;;;;5080092;28;20605;-50
2023/10/14 18:54:50;;;;;;;0.13;0.13;;;18.50;42.80;;;;;;5081221;28;20556;-47
2023/10/14 18:57:22;;;;;;;0.10;0.10;;;18.50;43.00;;;;;;5081612;28;20208;-49
2023/10/14 18:59:53;;;;;;;0.10;0.10;;;18.60;43.00;;;;;;5080924;28;20198;-53
2023/10/14 19:02:27;;;;;;;0.10;0.10;;;18.60;43.00;;;;;;5079429;28;20547;-46
2023/10/14 19:04:59;;;;;;;0.10;0.10;;;18.60;43.10;;;;;;5083017;28;20192;-52
2023/10/14 19:07:30;;;;;;;0.10;0.10;;;18.60;43.00;;;;;;5081624;28;20240;-50
2023/10/14 19:10:01;;;;;;;0.10;0.10;;;18.60;43.00;;;;;;5080662;28;20209;-53
2023/10/14 19:12:32;;;;;;;0.10;0.10;;;18.60;43.00;;;;;;5078573;28;20541;-46
2023/10/14 19:15:06;;;;;;;0.10;0.10;;;18.60;43.00;;;;;;5080540;28;20183;-49